Time;durP1;ratioP1;P1;durP2;ratioP2;P2;SDS_P1;SDS_P2;PMS_P1;PMS_P2;Temp;Humidity;BMP_temperature;BMP_pressure;BME280_temperature;BME280_humidity;BME280_pressure;Samples;Min_cycle;Max_cycle;Signal;HPM_P1;HPM_P2
2021/12/15 00:02:22;;;;;;;73.75;25.85;;;9.60;99.90;;;;;;4979120;28;20389;-80
2021/12/15 00:04:50;;;;;;;68.35;24.73;;;9.60;99.90;;;;;;4978925;28;20048;-81
2021/12/15 00:07:21;;;;;;;73.47;24.98;;;9.60;99.90;;;;;;4978545;28;20055;-81
2021/12/15 00:09:48;;;;;;;73.10;25.98;;;9.60;99.90;;;;;;4996737;28;20030;-80
2021/12/15 00:12:15;;;;;;;52.22;23.48;;;9.60;99.90;;;;;;4979018;28;20512;-79
2021/12/15 00:14:43;;;;;;;59.00;22.38;;;9.60;99.90;;;;;;4996281;28;20038;-80
2021/12/15 00:17:10;;;;;;;56.42;24.00;;;9.70;99.90;;;;;;4978352;28;20054;-82
2021/12/15 00:19:37;;;;;;;72.20;25.52;;;9.70;99.90;;;;;;4996277;28;20050;-81
2021/12/15 00:22:04;;;;;;;66.15;25.55;;;9.60;99.90;;;;;;4978438;28;20118;-79
2021/12/15 00:24:30;;;;;;;55.05;23.42;;;9.60;99.90;;;;;;4978808;28;20571;-79
2021/12/15 00:26:56;;;;;;;68.22;25.08;;;9.70;99.90;;;;;;4995928;28;20155;-80
2021/12/15 00:29:22;;;;;;;61.17;22.33;;;10.10;99.90;;;;;;4995952;28;20184;-81
2021/12/15 00:31:47;;;;;;;52.78;23.98;;;10.00;99.90;;;;;;4996269;28;20050;-81
2021/12/15 00:34:14;;;;;;;66.32;24.88;;;9.70;99.90;;;;;;4978552;28;20050;-80
2021/12/15 00:36:44;;;;;;;68.65;24.42;;;9.60;99.90;;;;;;4978370;28;20056;-80
2021/12/15 00:39:12;;;;;;;63.28;25.33;;;9.60;99.90;;;;;;4978432;28;20125;-82
2021/12/15 00:41:38;;;;;;;68.88;25.48;;;9.60;99.90;;;;;;4978572;28;20042;-82
2021/12/15 00:44:05;;;;;;;70.72;23.70;;;9.60;99.90;;;;;;4962164;28;20084;-81
2021/12/15 00:46:30;;;;;;;60.58;24.85;;;9.60;99.90;;;;;;4995697;28;20540;-80
2021/12/15 00:48:58;;;;;;;56.00;22.20;;;9.60;99.90;;;;;;4995159;28;20046;-78
2021/12/15 00:51:23;;;;;;;62.88;24.25;;;9.70;99.90;;;;;;4996065;28;20046;-79
2021/12/15 00:53:49;;;;;;;52.17;22.52;;;9.60;99.90;;;;;;4995999;28;20077;-81
2021/12/15 00:56:15;;;;;;;61.58;24.83;;;9.60;99.90;;;;;;4995899;28;20045;-79
2021/12/15 00:58:41;;;;;;;58.35;24.90;;;10.20;99.90;;;;;;4995092;28;20429;-80
2021/12/15 01:01:07;;;;;;;57.90;25.13;;;9.70;99.90;;;;;;4995416;28;20046;-81
2021/12/15 01:03:33;;;;;;;63.05;24.90;;;9.70;99.90;;;;;;4977890;28;20042;-80
2021/12/15 01:06:06;;;;;;;58.15;24.20;;;9.70;99.90;;;;;;4978511;28;20137;-82
2021/12/15 01:08:37;;;;;;;55.45;24.15;;;9.70;99.90;;;;;;4977717;28;20117;-80
2021/12/15 01:11:17;;;;;;;54.25;24.55;;;9.70;99.90;;;;;;4995220;28;20045;-79
2021/12/15 01:22:06;;;;;;;68.13;27.47;;;9.70;99.90;;;;;;4995319;28;20043;-81
2021/12/15 01:24:32;;;;;;;56.60;25.10;;;9.70;99.90;;;;;;4995260;28;20050;-81
2021/12/15 01:26:58;;;;;;;65.63;27.27;;;9.70;99.90;;;;;;4995151;28;20044;-79
2021/12/15 01:29:24;;;;;;;64.20;26.40;;;9.90;99.90;;;;;;4995100;28;20043;-81
2021/12/15 01:31:50;;;;;;;59.03;24.83;;;9.80;99.90;;;;;;4961469;28;20496;-80
2021/12/15 01:34:16;;;;;;;68.15;26.70;;;9.70;99.90;;;;;;4995151;28;20081;-79
2021/12/15 01:36:42;;;;;;;70.72;27.75;;;9.70;99.90;;;;;;4961705;28;20097;-80
2021/12/15 01:39:08;;;;;;;63.72;28.75;;;9.70;99.90;;;;;;4977350;28;20398;-80
2021/12/15 01:41:35;;;;;;;65.38;26.83;;;9.70;99.90;;;;;;4994415;28;20042;-80
2021/12/15 01:46:56;;;;;;;69.78;27.20;;;9.70;99.90;;;;;;4994625;28;20057;-78
2021/12/15 01:49:30;;;;;;;58.78;26.50;;;9.70;99.90;;;;;;4994853;28;20054;-78
2021/12/15 01:51:59;;;;;;;69.07;27.73;;;10.00;99.90;;;;;;4994217;28;20043;-80
2021/12/15 01:54:27;;;;;;;64.60;27.35;;;9.70;99.90;;;;;;4994879;28;20129;-80
2021/12/15 01:56:52;;;;;;;68.10;27.52;;;9.70;99.90;;;;;;4994810;28;20069;-80
2021/12/15 01:59:21;;;;;;;68.60;27.02;;;9.80;99.90;;;;;;4994491;28;20433;-81
2021/12/15 02:01:47;;;;;;;62.80;26.52;;;9.70;99.90;;;;;;4994318;28;20035;-80
2021/12/15 02:04:13;;;;;;;71.68;28.23;;;9.70;99.90;;;;;;4994266;28;20489;-80
2021/12/15 02:06:42;;;;;;;56.38;27.33;;;9.80;99.90;;;;;;4994398;28;20375;-81
2021/12/15 02:09:09;;;;;;;68.53;28.98;;;9.70;99.90;;;;;;4994371;28;20505;-81
2021/12/15 02:11:35;;;;;;;69.25;29.17;;;9.70;99.90;;;;;;4994071;28;20498;-80
2021/12/15 02:14:00;;;;;;;64.72;28.25;;;10.20;99.90;;;;;;4994380;28;20049;-80
2021/12/15 02:16:26;;;;;;;66.35;27.40;;;9.80;99.90;;;;;;4994197;28;20129;-78
2021/12/15 02:18:52;;;;;;;67.68;27.63;;;9.80;99.90;;;;;;4994110;28;20042;-80
2021/12/15 02:21:20;;;;;;;65.38;28.17;;;9.80;99.90;;;;;;4976424;28;20513;-80
2021/12/15 02:23:52;;;;;;;62.78;27.85;;;9.80;99.90;;;;;;4975831;28;20062;-79
2021/12/15 02:26:22;;;;;;;66.82;28.25;;;9.80;99.90;;;;;;4993965;28;20049;-78
2021/12/15 02:28:56;;;;;;;73.30;29.45;;;10.00;99.90;;;;;;4994023;28;20061;-79
2021/12/15 02:31:54;;;;;;;66.90;28.25;;;9.80;99.90;;;;;;4994063;28;20046;-79
2021/12/15 02:39:40;;;;;;;68.72;29.77;;;9.80;99.90;;;;;;4972898;28;20145;-79
2021/12/15 02:42:06;;;;;;;64.43;30.13;;;9.80;99.90;;;;;;4974297;28;20086;-79
2021/12/15 02:44:33;;;;;;;62.50;28.52;;;9.80;99.90;;;;;;4991577;28;20572;-79
2021/12/15 02:46:58;;;;;;;65.78;28.58;;;9.80;99.90;;;;;;4993967;28;20125;-78
2021/12/15 02:49:27;;;;;;;62.75;29.67;;;9.80;99.90;;;;;;4975960;28;20201;-79
2021/12/15 02:51:56;;;;;;;72.75;29.80;;;9.80;99.90;;;;;;4993734;28;20046;-80
2021/12/15 02:54:23;;;;;;;70.10;29.30;;;9.80;99.90;;;;;;4976110;28;20050;-79
2021/12/15 02:56:52;;;;;;;63.58;27.83;;;10.30;99.90;;;;;;4993548;28;20042;-78
2021/12/15 02:59:27;;;;;;;60.70;29.15;;;9.80;99.90;;;;;;4993265;28;20043;-79
2021/12/15 03:02:07;;;;;;;70.72;31.45;;;10.10;99.90;;;;;;4992371;28;20129;-79
2021/12/15 03:04:48;;;;;;;76.05;30.20;;;10.20;99.90;;;;;;4993043;28;20050;-79
2021/12/15 03:15:34;;;;;;;68.13;30.85;;;10.20;99.90;;;;;;4975352;28;20089;-79
2021/12/15 03:18:21;;;;;;;65.35;28.45;;;9.80;99.90;;;;;;4991769;28;20069;-80
2021/12/15 03:21:05;;;;;;;62.15;29.58;;;9.80;99.90;;;;;;4993029;28;20042;-79
2021/12/15 03:23:44;;;;;;;69.85;29.67;;;9.80;99.90;;;;;;4993133;28;20458;-77
2021/12/15 03:26:12;;;;;;;70.85;32.22;;;9.90;99.90;;;;;;4975568;28;20090;-79
2021/12/15 03:35:19;;;;;;;70.23;31.20;;;10.10;99.90;;;;;;4992902;28;20046;-78
2021/12/15 03:37:08;;;;;;;67.15;30.80;;;9.80;99.90;;;;;;4966326;28;20341;-79
2021/12/15 03:39:41;;;;;;;64.78;30.42;;;9.80;99.90;;;;;;4975272;28;20165;-78
2021/12/15 03:42:09;;;;;;;68.03;30.95;;;9.80;99.90;;;;;;4975672;28;20053;-78
2021/12/15 03:44:38;;;;;;;64.18;29.75;;;9.80;99.90;;;;;;4975700;28;20133;-79
2021/12/15 03:47:11;;;;;;;66.47;28.70;;;10.20;99.90;;;;;;4974901;28;20050;-79
2021/12/15 03:49:37;;;;;;;68.05;31.15;;;9.80;99.90;;;;;;4992809;28;20096;-78
2021/12/15 03:52:08;;;;;;;59.42;30.00;;;9.80;99.90;;;;;;4992438;28;20042;-78
2021/12/15 03:54:35;;;;;;;62.22;30.08;;;9.80;99.90;;;;;;4992746;28;20043;-78
2021/12/15 03:57:01;;;;;;;60.50;29.55;;;9.80;99.90;;;;;;4992762;28;20426;-78
2021/12/15 03:59:28;;;;;;;68.95;30.33;;;9.80;99.90;;;;;;4975428;28;20075;-80
2021/12/15 04:01:55;;;;;;;69.60;29.85;;;9.90;99.90;;;;;;4974714;28;20490;-79
2021/12/15 04:04:21;;;;;;;60.25;29.92;;;9.80;99.90;;;;;;4992691;28;20054;-78
2021/12/15 04:06:47;;;;;;;63.42;28.15;;;9.90;99.90;;;;;;4992625;28;20051;-79
2021/12/15 04:09:14;;;;;;;69.72;29.60;;;9.90;99.90;;;;;;4991798;28;20043;-79
2021/12/15 04:11:41;;;;;;;61.33;28.60;;;9.80;99.90;;;;;;4975506;28;20097;-80
2021/12/15 04:14:11;;;;;;;57.28;27.83;;;9.80;99.90;;;;;;4975441;28;20089;-78
2021/12/15 04:19:09;;;;;;;68.72;29.08;;;10.00;99.90;;;;;;4972564;28;20061;-81
2021/12/15 04:21:36;;;;;;;62.75;28.83;;;9.80;99.90;;;;;;4973133;28;20808;-78
2021/12/15 04:24:02;;;;;;;69.53;28.10;;;9.80;99.90;;;;;;4971592;28;20045;-77
2021/12/15 04:26:28;;;;;;;60.28;27.92;;;9.80;99.90;;;;;;4973282;28;20043;-79
2021/12/15 04:28:54;;;;;;;60.25;27.90;;;9.80;99.90;;;;;;4971776;28;20069;-77
2021/12/15 04:31:25;;;;;;;66.13;26.63;;;9.80;99.90;;;;;;4972737;28;20477;-78
2021/12/15 04:34:02;;;;;;;64.03;28.00;;;9.80;99.90;;;;;;4971647;28;20047;-78
2021/12/15 04:36:37;;;;;;;52.22;25.30;;;9.90;99.90;;;;;;4971653;28;20045;-79
2021/12/15 04:39:05;;;;;;;63.38;28.92;;;9.80;99.90;;;;;;4972727;28;20101;-79
2021/12/15 04:41:31;;;;;;;66.75;28.90;;;10.30;99.90;;;;;;4971402;28;20125;-77
2021/12/15 04:43:59;;;;;;;61.05;27.20;;;9.80;99.90;;;;;;4973119;28;20130;-80
2021/12/15 04:46:32;;;;;;;66.13;28.25;;;10.10;99.90;;;;;;4975942;28;20391;-79
2021/12/15 04:48:58;;;;;;;59.75;29.20;;;9.80;99.90;;;;;;4959032;28;20042;-79
2021/12/15 04:51:24;;;;;;;69.93;28.52;;;9.80;99.90;;;;;;4974905;28;20486;-78
2021/12/15 04:53:52;;;;;;;70.75;29.98;;;9.80;99.90;;;;;;4976440;28;20058;-79
2021/12/15 04:56:18;;;;;;;64.38;30.00;;;9.80;99.90;;;;;;4976192;28;20047;-79
2021/12/15 04:58:46;;;;;;;64.15;28.60;;;9.80;99.90;;;;;;4976264;28;20058;-79
2021/12/15 05:01:11;;;;;;;65.55;28.95;;;9.80;99.90;;;;;;4975713;28;20122;-79
2021/12/15 05:03:41;;;;;;;60.50;26.85;;;9.80;99.90;;;;;;4974939;28;20478;-78
2021/12/15 05:06:07;;;;;;;57.50;28.70;;;9.80;99.90;;;;;;4976163;28;20051;-79
2021/12/15 05:08:34;;;;;;;60.80;28.15;;;10.00;99.90;;;;;;4974859;28;20051;-77
2021/12/15 05:11:00;;;;;;;63.72;28.58;;;9.80;99.90;;;;;;4974567;28;20125;-78
2021/12/15 05:13:27;;;;;;;72.57;31.15;;;9.80;99.90;;;;;;4974535;28;20129;-77
2021/12/15 05:15:53;;;;;;;63.60;29.23;;;9.90;99.90;;;;;;4987264;28;20062;-79
2021/12/15 05:18:19;;;;;;;75.57;31.92;;;9.80;99.90;;;;;;4977545;28;20070;-78
2021/12/15 05:20:50;;;;;;;67.30;29.85;;;9.80;99.90;;;;;;4995528;28;20521;-79
2021/12/15 05:23:17;;;;;;;69.75;28.02;;;9.80;99.90;;;;;;4994930;28;20508;-78
2021/12/15 05:25:45;;;;;;;63.40;27.90;;;10.30;99.90;;;;;;4994972;28;20046;-79
2021/12/15 05:28:11;;;;;;;67.82;30.52;;;9.80;99.90;;;;;;4977959;28;20046;-80
2021/12/15 05:30:37;;;;;;;76.40;28.23;;;10.10;99.90;;;;;;4977691;28;20046;-78
2021/12/15 05:33:03;;;;;;;70.88;28.67;;;9.80;99.90;;;;;;4977698;28;20054;-76
2021/12/15 05:35:29;;;;;;;71.38;29.25;;;9.80;99.90;;;;;;4994876;28;20043;-79
2021/12/15 05:37:58;;;;;;;69.90;27.63;;;9.90;99.90;;;;;;4977671;28;20050;-78
2021/12/15 05:40:26;;;;;;;67.05;28.83;;;9.80;99.90;;;;;;4995036;28;20049;-79
2021/12/15 05:42:56;;;;;;;69.88;27.65;;;9.80;99.90;;;;;;4977334;28;20053;-80
2021/12/15 05:45:24;;;;;;;66.43;28.08;;;10.20;99.90;;;;;;4994653;28;20417;-79
2021/12/15 05:47:51;;;;;;;69.25;29.92;;;9.80;99.90;;;;;;4994842;28;20560;-78
2021/12/15 05:50:17;;;;;;;64.63;27.40;;;9.80;99.90;;;;;;4994962;28;20038;-79
2021/12/15 05:52:43;;;;;;;62.80;28.65;;;9.80;99.90;;;;;;4994349;28;20514;-78
2021/12/15 05:55:12;;;;;;;68.72;28.45;;;9.80;99.90;;;;;;4976709;28;20051;-78
2021/12/15 05:57:38;;;;;;;70.05;28.10;;;9.80;99.90;;;;;;4993076;28;20486;-79
2021/12/15 06:00:11;;;;;;;74.03;30.33;;;9.80;99.90;;;;;;4992911;28;20069;-79
2021/12/15 06:02:37;;;;;;;66.22;28.38;;;9.80;99.90;;;;;;4994776;28;20379;-79
2021/12/15 06:05:04;;;;;;;62.90;28.35;;;10.20;99.90;;;;;;4994313;28;20070;-77
2021/12/15 06:07:30;;;;;;;65.20;27.40;;;9.80;99.90;;;;;;4994358;28;20535;-78
2021/12/15 06:09:55;;;;;;;64.25;27.52;;;9.80;99.90;;;;;;4977020;28;20042;-79
2021/12/15 06:12:22;;;;;;;74.45;29.33;;;9.90;99.90;;;;;;4976524;28;20492;-79
2021/12/15 06:14:48;;;;;;;65.95;29.17;;;9.80;99.90;;;;;;4976560;28;20057;-77
2021/12/15 06:17:13;;;;;;;66.50;28.15;;;10.30;99.90;;;;;;4994186;28;20047;-80
2021/12/15 06:19:40;;;;;;;64.95;27.90;;;9.90;99.90;;;;;;4976844;28;20129;-78
2021/12/15 06:22:07;;;;;;;70.22;27.50;;;9.90;99.90;;;;;;4994136;28;20053;-79
2021/12/15 06:24:33;;;;;;;62.92;27.27;;;9.80;99.90;;;;;;4994225;28;20093;-79
2021/12/15 06:27:05;;;;;;;61.25;27.08;;;9.80;99.90;;;;;;4993632;28;20501;-79
2021/12/15 06:29:31;;;;;;;68.55;28.33;;;9.80;99.90;;;;;;4976208;28;20511;-79
2021/12/15 06:31:57;;;;;;;70.88;28.65;;;9.80;99.90;;;;;;4994076;28;20118;-77
2021/12/15 06:34:23;;;;;;;65.20;27.65;;;9.80;99.90;;;;;;4994138;28;20125;-78
2021/12/15 06:36:49;;;;;;;64.45;26.10;;;9.80;99.90;;;;;;4976226;28;20050;-78
2021/12/15 06:39:15;;;;;;;53.53;25.45;;;9.80;99.90;;;;;;4993768;28;20050;-78
2021/12/15 06:41:41;;;;;;;54.75;26.20;;;10.30;99.90;;;;;;4993641;28;20046;-79
2021/12/15 06:44:07;;;;;;;52.63;24.98;;;9.80;99.90;;;;;;4975597;28;20509;-78
2021/12/15 06:46:55;;;;;;;55.08;27.20;;;9.90;99.90;;;;;;4993660;28;20395;-79
2021/12/15 07:00:34;;;;;;;66.25;26.58;;;9.80;99.90;;;;;;4859708;29;20056;-77
2021/12/15 07:03:01;;;;;;;61.28;26.75;;;9.80;99.90;;;;;;4876767;29;20136;-79
2021/12/15 07:05:28;;;;;;;56.35;26.88;;;9.80;99.90;;;;;;4876376;29;20065;-79
2021/12/15 07:07:55;;;;;;;51.08;23.83;;;10.00;99.90;;;;;;4876468;29;20440;-79
2021/12/15 07:10:24;;;;;;;56.67;24.45;;;9.80;99.90;;;;;;4875252;29;20117;-78
2021/12/15 07:12:50;;;;;;;48.08;22.95;;;9.80;99.90;;;;;;4876732;29;20128;-79
2021/12/15 07:15:17;;;;;;;56.88;24.05;;;9.80;99.90;;;;;;4876223;29;20065;-79
2021/12/15 07:17:47;;;;;;;58.00;24.70;;;9.90;99.90;;;;;;4871755;29;20060;-77
2021/12/15 07:22:59;;;;;;;53.55;22.38;;;9.80;99.90;;;;;;4875926;29;20057;-79
2021/12/15 07:25:25;;;;;;;53.72;22.52;;;9.90;99.90;;;;;;4895108;29;20692;-80
2021/12/15 07:27:51;;;;;;;54.30;24.50;;;10.30;99.90;;;;;;4895203;29;20434;-79
2021/12/15 07:30:17;;;;;;;56.63;23.88;;;9.90;99.90;;;;;;4880353;29;20081;-79
2021/12/15 07:32:43;;;;;;;49.75;22.58;;;9.90;99.90;;;;;;4956463;28;20493;-79
2021/12/15 07:35:11;;;;;;;47.75;22.40;;;10.40;99.90;;;;;;4992892;28;20033;-78
2021/12/15 07:37:37;;;;;;;44.75;22.50;;;9.80;99.90;;;;;;4992814;28;20390;-79
2021/12/15 07:40:11;;;;;;;56.45;24.55;;;9.90;99.90;;;;;;4992905;28;20053;-79
2021/12/15 07:42:53;;;;;;;51.42;23.60;;;9.80;99.90;;;;;;4992908;28;20042;-79
2021/12/15 07:45:22;;;;;;;46.30;21.50;;;9.80;99.90;;;;;;4992376;28;20046;-78
2021/12/15 07:47:52;;;;;;;48.28;21.50;;;9.80;99.90;;;;;;4991300;28;20097;-79
2021/12/15 07:50:19;;;;;;;43.78;19.33;;;9.80;99.90;;;;;;4992422;28;20502;-79
2021/12/15 07:52:47;;;;;;;36.25;18.23;;;9.80;99.90;;;;;;4992905;28;20386;-82
2021/12/15 07:55:14;;;;;;;46.80;18.02;;;9.80;99.90;;;;;;4973677;28;20486;-80
2021/12/15 07:57:39;;;;;;;40.30;17.50;;;9.80;99.90;;;;;;4940084;28;20133;-79
2021/12/15 08:00:10;;;;;;;37.22;17.15;;;9.80;99.90;;;;;;4955990;28;20478;-80
2021/12/15 08:02:36;;;;;;;36.40;16.95;;;9.80;99.90;;;;;;4972845;28;20050;-80
2021/12/15 08:05:04;;;;;;;38.10;16.63;;;9.80;99.90;;;;;;4955845;28;20043;-80
2021/12/15 08:07:30;;;;;;;41.08;17.15;;;9.80;99.90;;;;;;4939899;28;20090;-79
2021/12/15 08:09:55;;;;;;;41.25;17.08;;;9.90;99.90;;;;;;4973132;28;20082;-79
2021/12/15 08:12:21;;;;;;;47.08;17.80;;;9.80;99.90;;;;;;4973098;28;20042;-78
2021/12/15 08:14:47;;;;;;;41.10;18.30;;;10.00;99.90;;;;;;4975414;28;20066;-79
2021/12/15 08:17:12;;;;;;;47.95;18.67;;;9.80;99.90;;;;;;4992515;28;20096;-78
2021/12/15 08:19:38;;;;;;;37.20;18.33;;;9.80;99.90;;;;;;4992825;28;20815;-79
2021/12/15 08:22:04;;;;;;;44.90;18.40;;;9.80;99.90;;;;;;4996411;28;20050;-79
2021/12/15 08:24:29;;;;;;;39.38;19.00;;;9.80;99.90;;;;;;4962704;28;20066;-79
2021/12/15 08:26:55;;;;;;;41.50;18.48;;;9.80;99.90;;;;;;4995969;28;20497;-81
2021/12/15 08:29:21;;;;;;;43.55;18.42;;;9.80;99.90;;;;;;4979013;28;20054;-81
2021/12/15 08:31:47;;;;;;;42.83;18.92;;;9.80;99.90;;;;;;4996246;28;20478;-79
2021/12/15 08:34:12;;;;;;;36.65;18.13;;;9.80;99.90;;;;;;4978712;28;20054;-80
2021/12/15 08:36:40;;;;;;;40.80;18.85;;;9.90;99.90;;;;;;4996242;28;20513;-78
2021/12/15 08:39:07;;;;;;;41.97;18.23;;;9.80;99.90;;;;;;4978684;28;20057;-80
2021/12/15 08:41:35;;;;;;;43.97;19.33;;;9.90;99.90;;;;;;4995887;28;20092;-80
2021/12/15 08:44:01;;;;;;;42.20;17.42;;;9.80;99.90;;;;;;4995993;28;20054;-80
2021/12/15 08:46:32;;;;;;;41.95;17.33;;;9.80;99.90;;;;;;4995886;28;20042;-80
2021/12/15 08:49:00;;;;;;;41.45;16.02;;;9.80;99.90;;;;;;4977615;28;20061;-77
2021/12/15 08:51:27;;;;;;;36.38;17.50;;;9.80;99.90;;;;;;4996022;28;20038;-80
2021/12/15 08:53:59;;;;;;;39.35;16.48;;;9.90;99.90;;;;;;4995737;28;20047;-78
2021/12/15 08:56:25;;;;;;;41.25;16.95;;;9.80;99.90;;;;;;4996000;28;20098;-80
2021/12/15 08:58:51;;;;;;;35.97;18.52;;;9.80;99.90;;;;;;4978405;28;20450;-79
2021/12/15 09:01:17;;;;;;;40.40;18.05;;;10.00;99.90;;;;;;4995633;28;20039;-80
2021/12/15 09:03:43;;;;;;;36.75;17.85;;;9.80;99.90;;;;;;4994456;28;20053;-79
2021/12/15 09:06:11;;;;;;;48.20;16.65;;;9.90;99.90;;;;;;4978041;28;20133;-78
2021/12/15 09:08:37;;;;;;;38.08;17.45;;;9.80;99.90;;;;;;4995822;28;20445;-78
2021/12/15 09:11:11;;;;;;;43.92;18.40;;;9.90;99.90;;;;;;4995480;28;20049;-80
2021/12/15 09:13:38;;;;;;;34.13;16.45;;;10.30;99.90;;;;;;4995351;28;20045;-79
2021/12/15 09:16:07;;;;;;;33.88;16.52;;;9.80;99.90;;;;;;4995144;28;20493;-79
2021/12/15 09:18:34;;;;;;;37.53;16.83;;;9.80;99.90;;;;;;4995299;28;20054;-78
2021/12/15 09:21:00;;;;;;;35.42;16.38;;;9.80;99.90;;;;;;4995077;28;20050;-80
2021/12/15 09:23:27;;;;;;;38.65;16.80;;;10.10;99.90;;;;;;4977213;28;20539;-79
2021/12/15 09:25:53;;;;;;;37.75;17.23;;;10.00;99.90;;;;;;4983709;28;20112;-79
2021/12/15 09:28:19;;;;;;;39.28;16.00;;;9.80;99.90;;;;;;4975680;28;20055;-78
2021/12/15 09:30:48;;;;;;;33.75;16.60;;;10.20;99.90;;;;;;4992210;28;20832;-79
2021/12/15 09:33:21;;;;;;;32.47;15.95;;;9.90;99.90;;;;;;4994732;28;20070;-79
2021/12/15 09:35:47;;;;;;;33.80;16.08;;;10.00;99.90;;;;;;4994747;28;20079;-78
2021/12/15 09:38:15;;;;;;;36.58;15.68;;;10.30;99.90;;;;;;4977402;28;20554;-78
2021/12/15 09:40:42;;;;;;;30.77;14.55;;;10.20;99.90;;;;;;4995180;28;20050;-78
2021/12/15 09:43:09;;;;;;;30.08;14.07;;;10.30;99.90;;;;;;4977430;28;20038;-79
2021/12/15 09:45:54;;;;;;;34.88;14.98;;;10.40;99.90;;;;;;4961475;28;20493;-78
2021/12/15 09:57:07;;;;;;;31.77;15.50;;;10.50;99.90;;;;;;4994687;28;20046;-78
2021/12/15 10:02:28;;;;;;;33.13;16.02;;;10.20;99.90;;;;;;4994310;28;20511;-81
2021/12/15 10:18:42;;;;;;;29.15;14.48;;;10.10;99.90;;;;;;4974684;28;20051;-78
2021/12/15 10:21:06;;;;;;;31.92;13.48;;;10.00;99.90;;;;;;4974022;28;20494;-79
2021/12/15 10:23:38;;;;;;;30.95;12.38;;;10.00;99.90;;;;;;4974362;28;20050;-78
2021/12/15 10:26:06;;;;;;;29.67;12.63;;;10.10;99.90;;;;;;4974511;28;20042;-78
2021/12/15 10:28:33;;;;;;;33.22;14.30;;;10.10;99.90;;;;;;4957633;28;20054;-78
2021/12/15 10:31:03;;;;;;;33.20;13.75;;;10.00;99.90;;;;;;4974550;28;20053;-78
2021/12/15 10:33:32;;;;;;;29.75;13.15;;;10.00;99.90;;;;;;4957307;28;20121;-79
2021/12/15 10:36:11;;;;;;;28.67;13.45;;;10.00;99.90;;;;;;4974500;28;20125;-77
2021/12/15 10:38:51;;;;;;;34.22;13.70;;;10.10;99.90;;;;;;4956308;28;20050;-79
2021/12/15 10:41:23;;;;;;;30.90;13.85;;;10.00;99.90;;;;;;4973845;28;20035;-77
2021/12/15 10:43:51;;;;;;;30.17;13.35;;;10.10;99.90;;;;;;4974194;28;20078;-79
2021/12/15 10:46:50;;;;;;;30.23;13.85;;;10.10;99.90;;;;;;4957294;28;20390;-79
2021/12/15 10:49:20;;;;;;;34.08;13.00;;;10.10;99.90;;;;;;4955072;29;20130;-78
2021/12/15 10:51:48;;;;;;;28.23;14.68;;;10.10;99.90;;;;;;4954878;29;20051;-78
2021/12/15 10:54:16;;;;;;;27.67;14.23;;;10.20;99.90;;;;;;4954720;29;20062;-79
2021/12/15 10:56:55;;;;;;;33.33;14.02;;;10.10;99.90;;;;;;4955101;29;20047;-78
2021/12/15 10:59:23;;;;;;;27.48;13.00;;;10.20;99.90;;;;;;4973565;28;20055;-79
2021/12/15 11:02:05;;;;;;;26.42;14.02;;;10.20;99.90;;;;;;4956685;28;20062;-79
2021/12/15 11:04:33;;;;;;;30.50;13.27;;;10.20;99.90;;;;;;4973931;28;20502;-77
2021/12/15 11:07:07;;;;;;;25.83;12.23;;;10.20;99.90;;;;;;4956596;28;20047;-80
2021/12/15 11:09:37;;;;;;;27.80;12.40;;;10.20;99.90;;;;;;4973574;28;20501;-79
2021/12/15 11:12:06;;;;;;;21.52;11.43;;;10.20;99.90;;;;;;4956539;28;20047;-78
2021/12/15 11:14:38;;;;;;;26.23;11.73;;;10.20;99.90;;;;;;4973737;28;20486;-80
2021/12/15 11:17:36;;;;;;;23.55;9.95;;;10.40;99.90;;;;;;4992124;28;20058;-77
2021/12/15 11:20:19;;;;;;;24.38;9.23;;;10.20;99.90;;;;;;4895148;29;20072;-79
2021/12/15 11:22:47;;;;;;;18.77;8.65;;;10.30;99.90;;;;;;4895255;29;20057;-78
2021/12/15 11:25:28;;;;;;;22.55;8.25;;;10.40;99.90;;;;;;4894925;29;20044;-77
2021/12/15 11:28:00;;;;;;;18.42;8.93;;;10.30;99.90;;;;;;4895189;29;20520;-79
2021/12/15 11:30:37;;;;;;;14.45;8.23;;;10.30;99.90;;;;;;4895029;29;20096;-79
2021/12/15 11:33:25;;;;;;;19.40;6.97;;;10.40;99.90;;;;;;4895164;29;20527;-79
2021/12/15 11:35:58;;;;;;;16.75;7.35;;;10.40;99.90;;;;;;4894777;29;20080;-81
2021/12/15 11:38:24;;;;;;;22.67;8.15;;;10.40;99.90;;;;;;4894731;29;20123;-79
2021/12/15 11:41:06;;;;;;;17.55;6.90;;;10.30;99.90;;;;;;4894807;29;20135;-78
2021/12/15 11:43:40;;;;;;;17.17;7.15;;;10.30;99.90;;;;;;4894989;29;20048;-79
2021/12/15 11:46:17;;;;;;;23.20;6.50;;;10.30;99.90;;;;;;4894825;29;20096;-78
2021/12/15 11:48:45;;;;;;;15.88;6.07;;;10.40;99.90;;;;;;4894767;29;20060;-77
2021/12/15 11:51:12;;;;;;;16.63;5.80;;;10.40;99.90;;;;;;4895005;29;20049;-77
2021/12/15 11:53:40;;;;;;;15.73;5.75;;;10.40;99.90;;;;;;4894981;29;20076;-79
2021/12/15 11:56:13;;;;;;;15.85;6.30;;;10.60;99.90;;;;;;4952340;28;20054;-78
2021/12/15 11:58:39;;;;;;;13.95;4.72;;;10.40;99.90;;;;;;4977393;28;20126;-78
2021/12/15 12:01:04;;;;;;;15.48;4.30;;;10.40;99.90;;;;;;4977356;28;20118;-78
2021/12/15 12:03:30;;;;;;;10.90;4.38;;;10.50;99.90;;;;;;4977128;28;20071;-78
2021/12/15 12:05:57;;;;;;;12.45;4.70;;;10.40;99.90;;;;;;4977467;28;20046;-78
2021/12/15 12:08:23;;;;;;;15.77;4.82;;;10.40;99.90;;;;;;4977271;28;20105;-79
2021/12/15 12:10:51;;;;;;;16.15;4.72;;;10.40;99.90;;;;;;4976172;28;20050;-79
2021/12/15 12:13:26;;;;;;;11.00;4.45;;;10.30;99.90;;;;;;4959516;28;20054;-78
2021/12/15 12:16:02;;;;;;;18.60;5.38;;;10.40;99.90;;;;;;4989336;28;20518;-78
2021/12/15 12:18:29;;;;;;;12.48;5.07;;;10.40;99.90;;;;;;4976906;28;20050;-79
2021/12/15 12:21:07;;;;;;;15.82;4.40;;;10.50;99.90;;;;;;4977016;28;20581;-77
2021/12/15 12:23:35;;;;;;;10.93;4.47;;;10.40;99.90;;;;;;4959560;28;20557;-79
2021/12/15 12:26:05;;;;;;;10.05;3.22;;;10.30;99.90;;;;;;4977055;28;20098;-78
2021/12/15 12:28:35;;;;;;;10.10;3.80;;;10.30;99.90;;;;;;4989615;28;20169;-78
2021/12/15 12:31:24;;;;;;;11.57;4.30;;;10.60;99.90;;;;;;4996258;28;20054;-79
2021/12/15 12:33:50;;;;;;;12.40;4.18;;;10.30;99.90;;;;;;4996390;28;20077;-77
2021/12/15 12:36:28;;;;;;;14.70;4.30;;;10.40;99.90;;;;;;4978896;28;20089;-78
2021/12/15 12:38:56;;;;;;;13.43;4.22;;;10.50;99.90;;;;;;4995952;28;20058;-78
2021/12/15 12:41:30;;;;;;;12.13;4.00;;;10.50;99.90;;;;;;4996265;28;20046;-76
2021/12/15 12:43:58;;;;;;;14.82;4.00;;;10.50;99.90;;;;;;4995955;28;20038;-79
2021/12/15 12:46:50;;;;;;;13.00;4.40;;;10.50;99.90;;;;;;4995860;28;20493;-79
2021/12/15 12:49:57;;;;;;;8.30;3.25;;;10.60;99.90;;;;;;4995701;28;20061;-78
2021/12/15 13:01:11;;;;;;;14.55;3.20;;;10.60;99.90;;;;;;4995876;28;20150;-78
2021/12/15 13:03:42;;;;;;;9.55;3.28;;;10.60;99.90;;;;;;4995844;28;20085;-78
2021/12/15 13:06:09;;;;;;;7.60;2.67;;;10.60;99.90;;;;;;4995098;28;20129;-78
2021/12/15 13:08:38;;;;;;;7.97;2.70;;;10.50;99.90;;;;;;4995476;28;20547;-78
2021/12/15 13:11:10;;;;;;;8.65;2.97;;;10.40;99.90;;;;;;4995733;28;20454;-78
2021/12/15 13:13:50;;;;;;;9.13;2.70;;;10.40;99.90;;;;;;4995118;28;20054;-77
2021/12/15 13:16:22;;;;;;;8.85;2.70;;;10.40;99.90;;;;;;4995349;28;20042;-78
2021/12/15 13:18:54;;;;;;;7.45;2.53;;;10.50;99.90;;;;;;4995359;28;20057;-78
2021/12/15 13:21:40;;;;;;;10.75;2.70;;;10.60;99.90;;;;;;4995633;28;20268;-78
2021/12/15 13:24:10;;;;;;;;;;;10.70;99.90;;;;;;4992569;28;20046;-76
2021/12/15 13:29:52;;;;;;;5.45;2.15;;;10.70;99.90;;;;;;4995102;28;20133;-79
2021/12/15 13:32:25;;;;;;;4.97;2.45;;;10.30;99.90;;;;;;4977469;28;20050;-80
2021/12/15 13:34:51;;;;;;;9.27;2.50;;;10.20;99.90;;;;;;4995011;28;20054;-78
2021/12/15 13:37:58;;;;;;;8.57;2.20;;;10.10;99.90;;;;;;4995141;28;20050;-79
2021/12/15 13:40:54;;;;;;;11.05;1.98;;;10.00;99.90;;;;;;4994933;28;20046;-79
2021/12/15 13:43:39;;;;;;;12.80;2.17;;;9.90;99.90;;;;;;4977655;28;20077;-79
2021/12/15 13:46:06;;;;;;;;;;;9.90;99.90;;;;;;4977796;28;20397;-79
2021/12/15 13:49:00;;;;;;;9.93;2.45;;;9.90;99.90;;;;;;4995118;28;19926;-79
2021/12/15 13:52:00;;;;;;;6.32;1.77;;;9.70;99.90;;;;;;4994707;28;20049;-79
2021/12/15 13:54:37;;;;;;;8.10;2.10;;;9.70;99.90;;;;;;4994798;28;20065;-79
2021/12/15 13:57:11;;;;;;;9.18;2.20;;;9.60;99.90;;;;;;4994817;28;20054;-78
2021/12/15 13:59:51;;;;;;;6.75;2.25;;;9.60;99.90;;;;;;4994821;28;20043;-79
2021/12/15 14:02:35;;;;;;;12.18;2.38;;;9.60;99.90;;;;;;4994434;28;20401;-78
2021/12/15 14:05:16;;;;;;;9.47;2.37;;;9.60;99.90;;;;;;4994518;28;20046;-78
2021/12/15 14:07:46;;;;;;;4.38;1.80;;;9.60;99.90;;;;;;4977037;28;20317;-80
2021/12/15 14:10:17;;;;;;;5.32;1.80;;;9.60;99.90;;;;;;4994482;28;20034;-78
2021/12/15 14:12:46;;;;;;;9.07;2.08;;;9.60;99.90;;;;;;4994490;28;20054;-80
2021/12/15 14:15:27;;;;;;;6.07;1.90;;;9.60;99.90;;;;;;4994336;28;20046;-79